Time;durP1;ratioP1;P1;durP2;ratioP2;P2;SDS_P1;SDS_P2;PMS_P1;PMS_P2;Temp;Humidity;BMP_temperature;BMP_pressure;BME280_temperature;BME280_humidity;BME280_pressure;Samples;Min_cycle;Max_cycle;Signal;HPM_P1;HPM_P2
2020/12/09 00:00:19;;;;;;;;;;;;;;;;;;5022652;28;19933;-78
2020/12/09 00:02:46;;;;;;;;;;;;;;;;;;5042280;28;19928;-78
2020/12/09 00:05:12;;;;;;;;;;;;;;;;;;5041140;28;20015;-77
2020/12/09 00:07:39;;;;;;;;;;;;;;;;;;5030211;28;19967;-78
2020/12/09 00:10:05;;;;;;;;;;;;;;;;;;5030328;28;19971;-77
2020/12/09 00:12:32;;;;;;;;;;;;;;;;;;5029556;28;20023;-78
2020/12/09 00:14:59;;;;;;;;;;;;;;;;;;5047870;28;19983;-78
2020/12/09 00:17:25;;;;;;;;;;;;;;;;;;5024801;28;20034;-78
2020/12/09 00:19:52;;;;;;;;;;;;;;;;;;5044958;28;19928;-78
2020/12/09 00:22:19;;;;;;;;;;;;;;;;;;5023907;28;20010;-78
2020/12/09 00:24:45;;;;;;;;;;;;;;;;;;5028813;28;19935;-78
2020/12/09 00:27:12;;;;;;;;;;;;;;;;;;5046815;28;20023;-78
2020/12/09 00:29:38;;;;;;;;;;;;;;;;;;5046779;28;20488;-78
2020/12/09 00:32:05;;;;;;;;;;;;;;;;;;5045757;28;20380;-77
2020/12/09 00:34:33;;;;;;;;;;;;;;;;;;5031471;28;20031;-78
2020/12/09 00:36:59;;;;;;;;;;;;;;;;;;5026841;28;20020;-78
2020/12/09 00:39:26;;;;;;;;;;;;;;;;;;5041596;28;20368;-78
2020/12/09 00:41:52;;;;;;;;;;;;;;;;;;5040606;28;20032;-78
2020/12/09 00:44:21;;;;;;;;;;;;;;;;;;5043354;28;19932;-78
2020/12/09 00:46:48;;;;;;;;;;;;;;;;;;5047205;28;20008;-78
2020/12/09 00:49:14;;;;;;;;;;;;;;;;;;5048339;28;20008;-78
2020/12/09 00:51:41;;;;;;;;;;;;;;;;;;5046233;28;19933;-78
2020/12/09 00:54:07;;;;;;;;;;;;;;;;;;5046527;28;20035;-78
2020/12/09 00:56:34;;;;;;;;;;;;;;;;;;5024107;28;19939;-79
2020/12/09 00:59:03;;;;;;;;;;;;;;;;;;5038731;28;20021;-78
2020/12/09 01:01:30;;;;;;;;;;;;;;;;;;5041395;28;19972;-78
2020/12/09 01:03:57;;;;;;;;;;;;;;;;;;5044212;28;20012;-77
2020/12/09 01:06:24;;;;;;;;;;;;;;;;;;5023819;28;19982;-78
2020/12/09 01:08:50;;;;;;;;;;;;;;;;;;5041849;28;20045;-78
2020/12/09 01:11:18;;;;;;;;;;;;;;;;;;5045565;28;19990;-78
2020/12/09 01:13:44;;;;;;;;;;;;;;;;;;5034432;28;19971;-78
2020/12/09 01:16:11;;;;;;;;;;;;;;;;;;5011464;28;20032;-78
2020/12/09 01:18:37;;;;;;;;;;;;;;;;;;5027845;28;20012;-78
2020/12/09 01:21:04;;;;;;;;;;;;;;;;;;5010537;28;20024;-78
2020/12/09 01:23:30;;;;;;;;;;;;;;;;;;5035784;28;20008;-78
2020/12/09 01:25:57;;;;;;;;;;;;;;;;;;5043211;28;20036;-78
2020/12/09 01:28:24;;;;;;;;;;;;;;;;;;5046143;28;20012;-78
2020/12/09 01:30:51;;;;;;;;;;;;;;;;;;5047292;28;20027;-79
2020/12/09 01:33:17;;;;;;;;;;;;;;;;;;5030170;28;19925;-78
2020/12/09 01:35:44;;;;;;;;;;;;;;;;;;5031478;28;20027;-78
2020/12/09 01:38:10;;;;;;;;;;;;;;;;;;5033844;28;20530;-78
2020/12/09 01:40:38;;;;;;;;;;;;;;;;;;5033745;28;20015;-78
2020/12/09 01:43:04;;;;;;;;;;;;;;;;;;5045965;28;20040;-78
2020/12/09 01:45:33;;;;;;;;;;;;;;;;;;5027534;28;19939;-78
2020/12/09 01:48:00;;;;;;;;;;;;;;;;;;5045406;28;19968;-78
2020/12/09 01:50:26;;;;;;;;;;;;;;;;;;5044442;28;19929;-78
2020/12/09 01:52:53;;;;;;;;;;;;;;;;;;5044845;28;20582;-78
2020/12/09 01:55:21;;;;;;;;;;;;;;;;;;5046351;28;19936;-78
2020/12/09 01:57:48;;;;;;;;;;;;;;;;;;5045735;28;19971;-79
2020/12/09 02:00:15;;;;;;;;;;;;;;;;;;5026649;28;20345;-78
2020/12/09 02:02:42;;;;;;;;;;;;;;;;;;5027907;28;20015;-78
2020/12/09 02:05:08;;;;;;;;;;;;;;;;;;5045859;28;20023;-77
2020/12/09 02:07:35;;;;;;;;;;;;;;;;;;5049298;28;19929;-78
2020/12/09 02:10:02;;;;;;;;;;;;;;;;;;5051567;28;20378;-78
2020/12/09 02:12:29;;;;;;;;;;;;;;;;;;5047573;28;20020;-78
2020/12/09 02:14:58;;;;;;;;;;;;;;;;;;5045035;28;19960;-78
2020/12/09 02:17:25;;;;;;;;;;;;;;;;;;5044160;28;19929;-78
2020/12/09 02:19:51;;;;;;;;;;;;;;;;;;5053889;28;20015;-78
2020/12/09 02:22:18;;;;;;;;;;;;;;;;;;5055516;28;19968;-78
2020/12/09 02:24:44;;;;;;;;;;;;;;;;;;5044644;28;19964;-78
2020/12/09 02:27:11;;;;;;;;;;;;;;;;;;5046661;28;20027;-78
2020/12/09 02:29:38;;;;;;;;;;;;;;;;;;5049539;28;19964;-78
2020/12/09 02:32:06;;;;;;;;;;;;;;;;;;5033241;28;20020;-78
2020/12/09 02:34:33;;;;;;;;;;;;;;;;;;5051383;28;20015;-78
2020/12/09 02:36:59;;;;;;;;;;;;;;;;;;5052061;28;19960;-78
2020/12/09 02:39:26;;;;;;;;;;;;;;;;;;5046832;28;19925;-78
2020/12/09 02:41:53;;;;;;;;;;;;;;;;;;5044812;28;20007;-78
2020/12/09 02:44:19;;;;;;;;;;;;;;;;;;5045208;28;20044;-78
2020/12/09 02:46:46;;;;;;;;;;;;;;;;;;5048356;28;20417;-78
2020/12/09 02:49:12;;;;;;;;;;;;;;;;;;5045231;28;19925;-77
2020/12/09 02:51:39;;;;;;;;;;;;;;;;;;5013615;28;19925;-78
2020/12/09 02:54:06;;;;;;;;;;;;;;;;;;5013469;28;19929;-78
2020/12/09 02:56:32;;;;;;;;;;;;;;;;;;5030821;28;20011;-78
2020/12/09 02:58:59;;;;;;;;;;;;;;;;;;5032719;28;19978;-78
2020/12/09 03:01:25;;;;;;;;;;;;;;;;;;5026717;28;20040;-78
2020/12/09 03:03:52;;;;;;;;;;;;;;;;;;5043299;28;20039;-78
2020/12/09 03:06:18;;;;;;;;;;;;;;;;;;5043928;28;19925;-78
2020/12/09 03:08:46;;;;;;;;;;;;;;;;;;5027860;28;20024;-78
2020/12/09 03:11:12;;;;;;;;;;;;;;;;;;5032706;28;20335;-78
2020/12/09 03:13:39;;;;;;;;;;;;;;;;;;5050219;28;19971;-78
2020/12/09 03:16:06;;;;;;;;;;;;;;;;;;5051079;28;19929;-78
2020/12/09 03:18:32;;;;;;;;;;;;;;;;;;5044867;28;19925;-78
2020/12/09 03:21:00;;;;;;;;;;;;;;;;;;5044426;28;19925;-78
2020/12/09 03:23:26;;;;;;;;;;;;;;;;;;5041616;28;19935;-78
2020/12/09 03:25:53;;;;;;;;;;;;;;;;;;5041971;28;19929;-78
2020/12/09 03:28:19;;;;;;;;;;;;;;;;;;5026131;28;20016;-78
2020/12/09 03:30:46;;;;;;;;;;;;;;;;;;5026313;28;19978;-78
2020/12/09 03:33:13;;;;;;;;;;;;;;;;;;5044762;28;19924;-78
2020/12/09 03:35:40;;;;;;;;;;;;;;;;;;5044473;28;20019;-78
2020/12/09 03:38:09;;;;;;;;;;;;;;;;;;5024055;28;20828;-78
2020/12/09 03:40:36;;;;;;;;;;;;;;;;;;5037164;28;19964;-78
2020/12/09 03:43:02;;;;;;;;;;;;;;;;;;5056115;28;20686;-78
2020/12/09 03:45:29;;;;;;;;;;;;;;;;;;5062321;28;20030;-78
2020/12/09 03:47:55;;;;;;;;;;;;;;;;;;5026585;28;20039;-78
2020/12/09 03:50:22;;;;;;;;;;;;;;;;;;5046740;28;20027;-78
2020/12/09 03:52:49;;;;;;;;;;;;;;;;;;5047590;28;19929;-78
2020/12/09 03:55:15;;;;;;;;;;;;;;;;;;5046021;28;20016;-78
2020/12/09 03:57:42;;;;;;;;;;;;;;;;;;5023267;28;19940;-78
2020/12/09 04:00:08;;;;;;;;;;;;;;;;;;5037889;28;19929;-78
2020/12/09 04:02:35;;;;;;;;;;;;;;;;;;5035977;28;19947;-78
2020/12/09 04:05:02;;;;;;;;;;;;;;;;;;5037810;28;19931;-78
2020/12/09 04:07:29;;;;;;;;;;;;;;;;;;5020313;28;20361;-78
2020/12/09 04:09:55;;;;;;;;;;;;;;;;;;5042587;28;19928;-78
2020/12/09 04:12:23;;;;;;;;;;;;;;;;;;5043739;28;20106;-78
2020/12/09 04:14:50;;;;;;;;;;;;;;;;;;5043990;28;20519;-78
2020/12/09 04:17:16;;;;;;;;;;;;;;;;;;5044248;28;19932;-78
2020/12/09 04:19:45;;;;;;;;;;;;;;;;;;5028873;28;20016;-78
2020/12/09 04:22:12;;;;;;;;;;;;;;;;;;5040625;28;19931;-78
2020/12/09 04:24:38;;;;;;;;;;;;;;;;;;5040535;28;19960;-78
2020/12/09 04:27:05;;;;;;;;;;;;;;;;;;5029742;28;19996;-78
2020/12/09 04:29:31;;;;;;;;;;;;;;;;;;5023044;28;19933;-79
2020/12/09 04:31:58;;;;;;;;;;;;;;;;;;5023853;28;21617;-78
2020/12/09 04:34:25;;;;;;;;;;;;;;;;;;5041208;28;19929;-78
2020/12/09 04:36:51;;;;;;;;;;;;;;;;;;5041334;28;19935;-78
2020/12/09 04:39:19;;;;;;;;;;;;;;;;;;5042598;28;20023;-78
2020/12/09 04:41:45;;;;;;;;;;;;;;;;;;5023130;28;20660;-78
2020/12/09 04:44:12;;;;;;;;;;;;;;;;;;5040562;28;20012;-78
2020/12/09 04:46:38;;;;;;;;;;;;;;;;;;5041937;28;20059;-77
2020/12/09 04:49:06;;;;;;;;;;;;;;;;;;5041930;28;20445;-78
2020/12/09 04:51:33;;;;;;;;;;;;;;;;;;5039470;28;19975;-77
2020/12/09 04:53:59;;;;;;;;;;;;;;;;;;5041319;28;20508;-78
2020/12/09 04:56:26;;;;;;;;;;;;;;;;;;5021570;28;19960;-78
2020/12/09 04:58:52;;;;;;;;;;;;;;;;;;5041474;28;19924;-78
2020/12/09 05:01:19;;;;;;;;;;;;;;;;;;5035589;28;20020;-78
2020/12/09 05:04:04;;;;;;;;;;;;;;;;;;5037418;28;19935;-78
2020/12/09 05:06:31;;;;;;;;;;;;;;;;;;5046982;28;19929;-78
2020/12/09 05:08:57;;;;;;;;;;;;;;;;;;5046915;28;19937;-78
2020/12/09 05:11:24;;;;;;;;;;;;;;;;;;5037109;28;21099;-78
2020/12/09 05:13:50;;;;;;;;;;;;;;;;;;5022978;28;20030;-78
2020/12/09 05:16:17;;;;;;;;;;;;;;;;;;5040328;28;19998;-78
2020/12/09 05:18:44;;;;;;;;;;;;;;;;;;5047070;28;20448;-78
2020/12/09 05:21:10;;;;;;;;;;;;;;;;;;5048627;28;20016;-78
2020/12/09 05:23:37;;;;;;;;;;;;;;;;;;5030883;28;20480;-78
2020/12/09 05:26:03;;;;;;;;;;;;;;;;;;5048138;28;20567;-78
2020/12/09 05:28:30;;;;;;;;;;;;;;;;;;5027500;28;19929;-78
2020/12/09 05:30:57;;;;;;;;;;;;;;;;;;5038296;28;19939;-77
2020/12/09 05:33:25;;;;;;;;;;;;;;;;;;5041560;28;19939;-77
2020/12/09 05:35:52;;;;;;;;;;;;;;;;;;5039740;28;20380;-77
2020/12/09 05:38:19;;;;;;;;;;;;;;;;;;5042227;28;19931;-77
2020/12/09 05:40:45;;;;;;;;;;;;;;;;;;5045956;28;19964;-77
2020/12/09 05:43:15;;;;;;;;;;;;;;;;;;5042301;28;20281;-77
2020/12/09 05:45:43;;;;;;;;;;;;;;;;;;5040473;28;19972;-77
2020/12/09 05:48:09;;;;;;;;;;;;;;;;;;5025013;28;19975;-78
2020/12/09 05:50:36;;;;;;;;;;;;;;;;;;5025213;28;19931;-77
2020/12/09 05:53:02;;;;;;;;;;;;;;;;;;5021178;28;19980;-75
2020/12/09 05:55:29;;;;;;;;;;;;;;;;;;5026900;28;20004;-76
2020/12/09 05:57:56;;;;;;;;;;;;;;;;;;5035487;28;20416;-76
2020/12/09 06:00:22;;;;;;;;;;;;;;;;;;5035885;28;19932;-77
2020/12/09 06:02:49;;;;;;;;;;;;;;;;;;5020307;28;19940;-76
2020/12/09 06:05:15;;;;;;;;;;;;;;;;;;5043336;28;20328;-75
2020/12/09 06:07:42;;;;;;;;;;;;;;;;;;5039679;28;19939;-76
2020/12/09 06:10:09;;;;;;;;;;;;;;;;;;5041246;28;19924;-77
2020/12/09 06:12:36;;;;;;;;;;;;;;;;;;5039233;28;19939;-77
2020/12/09 06:15:05;;;;;;;;;;;;;;;;;;5040435;28;20011;-77
2020/12/09 06:17:34;;;;;;;;;;;;;;;;;;5040997;28;20385;-77
2020/12/09 06:20:03;;;;;;;;;;;;;;;;;;5043699;28;19928;-76
2020/12/09 06:22:30;;;;;;;;;;;;;;;;;;5024269;28;19925;-75
2020/12/09 06:24:59;;;;;;;;;;;;;;;;;;5043077;28;20285;-76
2020/12/09 06:27:28;;;;;;;;;;;;;;;;;;5025884;28;20010;-77
2020/12/09 06:29:55;;;;;;;;;;;;;;;;;;5042554;28;20271;-80
2020/12/09 06:32:26;;;;;;;;;;;;;;;;;;5045707;28;19932;-84
2020/12/09 06:34:53;;;;;;;;;;;;;;;;;;5042598;28;20012;-77
2020/12/09 06:37:19;;;;;;;;;;;;;;;;;;5048025;28;19964;-77
2020/12/09 06:39:46;;;;;;;;;;;;;;;;;;5041936;28;20449;-77
2020/12/09 06:42:13;;;;;;;;;;;;;;;;;;5026776;28;19936;-77
2020/12/09 06:44:40;;;;;;;;;;;;;;;;;;5047518;28;19924;-78
2020/12/09 06:47:06;;;;;;;;;;;;;;;;;;5046301;28;20581;-78
2020/12/09 06:49:33;;;;;;;;;;;;;;;;;;5033729;28;19931;-78
2020/12/09 06:52:00;;;;;;;;;;;;;;;;;;5033587;28;19968;-78
2020/12/09 06:54:28;;;;;;;;;;;;;;;;;;5048380;28;19940;-78
2020/12/09 06:56:54;;;;;;;;;;;;;;;;;;5050848;28;20012;-79
2020/12/09 06:59:21;;;;;;;;;;;;;;;;;;5056472;28;19982;-80
2020/12/09 07:01:49;;;;;;;;;;;;;;;;;;5058920;28;19924;-80
2020/12/09 07:04:15;;;;;;;;;;;;;;;;;;5053348;28;19956;-82
2020/12/09 07:06:42;;;;;;;;;;;;;;;;;;5052840;28;19999;-80
2020/12/09 07:09:09;;;;;;;;;;;;;;;;;;5050216;28;20331;-81
2020/12/09 07:11:35;;;;;;;;;;;;;;;;;;5055469;28;20730;-81
2020/12/09 07:14:07;;;;;;;;;;;;;;;;;;5040493;28;19975;-82
2020/12/09 07:16:33;;;;;;;;;;;;;;;;;;5052521;28;19933;-82
2020/12/09 07:19:01;;;;;;;;;;;;;;;;;;5049747;28;19970;-83
2020/12/09 07:21:28;;;;;;;;;;;;;;;;;;5049826;28;20016;-82
2020/12/09 07:23:54;;;;;;;;;;;;;;;;;;5053210;28;19978;-82
2020/12/09 07:26:21;;;;;;;;;;;;;;;;;;5054340;28;20000;-82
2020/12/09 07:28:47;;;;;;;;;;;;;;;;;;5050369;28;20015;-82
2020/12/09 07:31:16;;;;;;;;;;;;;;;;;;5050416;28;19978;-82
2020/12/09 07:33:44;;;;;;;;;;;;;;;;;;5056508;28;20426;-82
2020/12/09 07:36:11;;;;;;;;;;;;;;;;;;5040079;28;19925;-82
2020/12/09 07:38:37;;;;;;;;;;;;;;;;;;5039358;28;20027;-83
2020/12/09 07:41:04;;;;;;;;;;;;;;;;;;5056693;28;19971;-83
2020/12/09 07:43:31;;;;;;;;;;;;;;;;;;5031627;28;19971;-82
2020/12/09 07:46:00;;;;;;;;;;;;;;;;;;5033508;28;19972;-82
2020/12/09 07:48:27;;;;;;;;;;;;;;;;;;5051321;28;19936;-83
2020/12/09 07:50:55;;;;;;;;;;;;;;;;;;5057479;28;19956;-83
2020/12/09 07:53:22;;;;;;;;;;;;;;;;;;5052137;28;19933;-83
2020/12/09 07:55:49;;;;;;;;;;;;;;;;;;5034183;28;19975;-82
2020/12/09 07:58:16;;;;;;;;;;;;;;;;;;5036103;28;19975;-83
2020/12/09 08:00:42;;;;;;;;;;;;;;;;;;5055883;28;19932;-77
2020/12/09 08:03:09;;;;;;;;;;;;;;;;;;5012319;28;19925;-77
2020/12/09 08:05:37;;;;;;;;;;;;;;;;;;5011027;28;19975;-77
2020/12/09 08:08:03;;;;;;;;;;;;;;;;;;5010911;28;20555;-77
2020/12/09 08:10:33;;;;;;;;;;;;;;;;;;5015542;28;19933;-77
2020/12/09 08:12:59;;;;;;;;;;;;;;;;;;5040533;28;19975;-76
2020/12/09 08:15:26;;;;;;;;;;;;;;;;;;5041290;28;20374;-77
2020/12/09 08:17:55;;;;;;;;;;;;;;;;;;5030036;28;19936;-77
2020/12/09 08:20:21;;;;;;;;;;;;;;;;;;5026173;28;19968;-78
2020/12/09 08:22:48;;;;;;;;;;;;;;;;;;5024288;28;20567;-77
2020/12/09 08:25:15;;;;;;;;;;;;;;;;;;5045142;28;20007;-78
2020/12/09 08:27:41;;;;;;;;;;;;;;;;;;5053830;28;20403;-78
2020/12/09 08:30:08;;;;;;;;;;;;;;;;;;5043873;28;19932;-78
2020/12/09 08:32:35;;;;;;;;;;;;;;;;;;5036974;28;20559;-78
2020/12/09 08:35:02;;;;;;;;;;;;;;;;;;5021294;28;21331;-77
2020/12/09 08:37:29;;;;;;;;;;;;;;;;;;5027054;28;20362;-78
2020/12/09 08:39:56;;;;;;;;;;;;;;;;;;5042564;28;20562;-78
2020/12/09 08:42:22;;;;;;;;;;;;;;;;;;5022308;28;19933;-78
2020/12/09 08:44:49;;;;;;;;;;;;;;;;;;5039004;28;19925;-78
2020/12/09 08:47:15;;;;;;;;;;;;;;;;;;5030066;28;20327;-78
2020/12/09 08:49:42;;;;;;;;;;;;;;;;;;5024435;28;20015;-77
2020/12/09 08:52:09;;;;;;;;;;;;;;;;;;5031383;28;19924;-78
2020/12/09 08:54:35;;;;;;;;;;;;;;;;;;5052856;28;20261;-78
2020/12/09 08:57:02;;;;;;;;;;;;;;;;;;5038896;28;20008;-77
2020/12/09 08:59:28;;;;;;;;;;;;;;;;;;5039463;28;20055;-78
2020/12/09 09:01:55;;;;;;;;;;;;;;;;;;5021468;28;20028;-78
2020/12/09 09:04:27;;;;;;;;;;;;;;;;;;5028620;28;19935;-77
2020/12/09 09:06:53;;;;;;;;;;;;;;;;;;5043241;28;20345;-78
2020/12/09 09:09:20;;;;;;;;;;;;;;;;;;5039262;28;19932;-78
2020/12/09 09:11:46;;;;;;;;;;;;;;;;;;5021787;28;19970;-77
2020/12/09 09:14:25;;;;;;;;;;;;;;;;;;5031726;28;20328;-77
2020/12/09 09:16:52;;;;;;;;;;;;;;;;;;5028708;28;19941;-78
2020/12/09 09:19:18;;;;;;;;;;;;;;;;;;5029642;28;20372;-77
2020/12/09 09:21:45;;;;;;;;;;;;;;;;;;5029420;28;19928;-78
2020/12/09 09:24:12;;;;;;;;;;;;;;;;;;5029741;28;19987;-79
2020/12/09 09:26:38;;;;;;;;;;;;;;;;;;5045001;28;20019;-78
2020/12/09 09:29:05;;;;;;;;;;;;;;;;;;5039260;28;20732;-77
2020/12/09 09:31:31;;;;;;;;;;;;;;;;;;5021698;28;20016;-78
2020/12/09 09:34:00;;;;;;;;;;;;;;;;;;5044810;28;19971;-78
2020/12/09 09:36:26;;;;;;;;;;;;;;;;;;5046957;28;20060;-78
2020/12/09 09:38:53;;;;;;;;;;;;;;;;;;5048320;28;19971;-78
2020/12/09 09:41:19;;;;;;;;;;;;;;;;;;5046830;28;19925;-78
2020/12/09 09:43:47;;;;;;;;;;;;;;;;;;5030084;28;20263;-78
2020/12/09 09:46:13;;;;;;;;;;;;;;;;;;5024271;28;20067;-78
2020/12/09 09:48:41;;;;;;;;;;;;;;;;;;5027173;28;19924;-79
2020/12/09 09:51:08;;;;;;;;;;;;;;;;;;5047290;28;19959;-78
2020/12/09 09:53:36;;;;;;;;;;;;;;;;;;5049929;28;20023;-78
2020/12/09 09:56:02;;;;;;;;;;;;;;;;;;5045224;28;19982;-78
2020/12/09 09:58:29;;;;;;;;;;;;;;;;;;5047604;28;19924;-78
2020/12/09 10:00:55;;;;;;;;;;;;;;;;;;5029982;28;20039;-78
2020/12/09 10:03:22;;;;;;;;;;;;;;;;;;5050211;28;20047;-79
2020/12/09 10:05:49;;;;;;;;;;;;;;;;;;5054187;28;19938;-79
2020/12/09 10:08:15;;;;;;;;;;;;;;;;;;5037666;28;19928;-77
2020/12/09 10:10:43;;;;;;;;;;;;;;;;;;5054995;28;20026;-78
2020/12/09 10:13:11;;;;;;;;;;;;;;;;;;5037390;28;19925;-79
2020/12/09 10:15:38;;;;;;;;;;;;;;;;;;5051741;28;19979;-78
2020/12/09 10:18:04;;;;;;;;;;;;;;;;;;5047900;28;19925;-78
2020/12/09 10:20:31;;;;;;;;;;;;;;;;;;5029214;28;20016;-79
2020/12/09 10:22:58;;;;;;;;;;;;;;;;;;5052365;28;20055;-78
2020/12/09 10:25:24;;;;;;;;;;;;;;;;;;5044375;28;20016;-78
2020/12/09 10:27:51;;;;;;;;;;;;;;;;;;5015543;28;20063;-79
2020/12/09 10:30:19;;;;;;;;;;;;;;;;;;5015168;28;19929;-80
2020/12/09 10:32:47;;;;;;;;;;;;;;;;;;5017525;28;20018;-79
2020/12/09 10:35:16;;;;;;;;;;;;;;;;;;5041608;28;19925;-79
2020/12/09 10:37:42;;;;;;;;;;;;;;;;;;5047229;28;20546;-79
2020/12/09 10:40:11;;;;;;;;;;;;;;;;;;5045599;28;20606;-79
2020/12/09 10:42:37;;;;;;;;;;;;;;;;;;5046962;28;20008;-79
2020/12/09 10:45:05;;;;;;;;;;;;;;;;;;5048408;28;19929;-79
2020/12/09 10:47:32;;;;;;;;;;;;;;;;;;5045827;28;20671;-78
2020/12/09 10:49:58;;;;;;;;;;;;;;;;;;5047358;28;20027;-79
2020/12/09 10:52:26;;;;;;;;;;;;;;;;;;5032901;28;20717;-79
2020/12/09 10:54:52;;;;;;;;;;;;;;;;;;5053460;28;20393;-78
2020/12/09 10:57:19;;;;;;;;;;;;;;;;;;5035688;28;19971;-78
2020/12/09 10:59:45;;;;;;;;;;;;;;;;;;5037626;28;20043;-79
2020/12/09 11:02:12;;;;;;;;;;;;;;;;;;5068155;28;19928;-79
2020/12/09 11:04:39;;;;;;;;;;;;;;;;;;5046454;28;19925;-79
2020/12/09 11:07:05;;;;;;;;;;;;;;;;;;5043828;28;19925;-78
2020/12/09 11:09:32;;;;;;;;;;;;;;;;;;5047895;28;20015;-79
2020/12/09 11:11:59;;;;;;;;;;;;;;;;;;5044658;28;19924;-79
2020/12/09 11:14:27;;;;;;;;;;;;;;;;;;5051372;28;19928;-79
2020/12/09 11:16:53;;;;;;;;;;;;;;;;;;5052439;28;19972;-79
2020/12/09 11:19:20;;;;;;;;;;;;;;;;;;5016462;28;19973;-79
2020/12/09 11:21:48;;;;;;;;;;;;;;;;;;5013899;28;19939;-78
2020/12/09 11:24:15;;;;;;;;;;;;;;;;;;5015479;28;19964;-79
2020/12/09 11:26:41;;;;;;;;;;;;;;;;;;5015832;28;19928;-78
2020/12/09 11:29:08;;;;;;;;;;;;;;;;;;5026033;28;20523;-78
2020/12/09 11:31:38;;;;;;;;;;;;;;;;;;5028877;28;19991;-78
2020/12/09 11:34:04;;;;;;;;;;;;;;;;;;5045292;28;19963;-78
2020/12/09 11:39:01;;;;;;;;;;;;;;;;;;5043499;28;19995;-79
2020/12/09 11:41:28;;;;;;;;;;;;;;;;;;5043365;28;19995;-78
2020/12/09 11:43:55;;;;;;;;;;;;;;;;;;5030358;28;19952;-77
2020/12/09 11:46:23;;;;;;;;;;;;;;;;;;5033973;28;19991;-78
2020/12/09 11:48:49;;;;;;;;;;;;;;;;;;5033210;28;19925;-78
2020/12/09 11:51:19;;;;;;;;;;;;;;;;;;5032296;28;20013;-78
2020/12/09 11:53:46;;;;;;;;;;;;;;;;;;5034849;28;19929;-77
2020/12/09 11:56:14;;;;;;;;;;;;;;;;;;5029334;28;20344;-78
2020/12/09 11:58:40;;;;;;;;;;;;;;;;;;5045512;28;19964;-77
2020/12/09 12:01:07;;;;;;;;;;;;;;;;;;5048736;28;20006;-78
2020/12/09 12:03:36;;;;;;;;;;;;;;;;;;5052776;28;19971;-78
2020/12/09 12:06:03;;;;;;;;;;;;;;;;;;5038053;28;20374;-78
2020/12/09 12:08:30;;;;;;;;;;;;;;;;;;5032224;28;19979;-77
2020/12/09 12:10:57;;;;;;;;;;;;;;;;;;5014501;28;20347;-77
2020/12/09 12:13:27;;;;;;;;;;;;;;;;;;5016393;28;20031;-78
2020/12/09 12:15:54;;;;;;;;;;;;;;;;;;5045932;28;20011;-77
2020/12/09 12:18:20;;;;;;;;;;;;;;;;;;5044286;28;20413;-77
2020/12/09 12:20:47;;;;;;;;;;;;;;;;;;5042265;28;20375;-77
2020/12/09 12:23:13;;;;;;;;;;;;;;;;;;5046003;28;20016;-77
2020/12/09 12:25:40;;;;;;;;;;;;;;;;;;5032944;28;20024;-77
2020/12/09 12:28:07;;;;;;;;;;;;;;;;;;5031278;28;20091;-78
2020/12/09 12:30:33;;;;;;;;;;;;;;;;;;5033300;28;19931;-78
2020/12/09 12:33:00;;;;;;;;;;;;;;;;;;5032710;28;20383;-78
2020/12/09 12:35:27;;;;;;;;;;;;;;;;;;5045160;28;19935;-78
2020/12/09 12:37:54;;;;;;;;;;;;;;;;;;5045214;28;20444;-78
2020/12/09 12:40:20;;;;;;;;;;;;;;;;;;5047048;28;19928;-78
2020/12/09 12:42:47;;;;;;;;;;;;;;;;;;5050158;28;20023;-77
2020/12/09 12:45:13;;;;;;;;;;;;;;;;;;5032748;28;19925;-78
2020/12/09 12:47:40;;;;;;;;;;;;;;;;;;5013923;28;19999;-78
2020/12/09 12:50:06;;;;;;;;;;;;;;;;;;5033363;28;19928;-78
2020/12/09 12:52:34;;;;;;;;;;;;;;;;;;5044270;28;20016;-78
2020/12/09 12:55:01;;;;;;;;;;;;;;;;;;5026543;28;20263;-78
2020/12/09 12:57:28;;;;;;;;;;;;;;;;;;5028289;28;20574;-78
2020/12/09 12:59:56;;;;;;;;;;;;;;;;;;5043715;28;19925;-78
2020/12/09 13:02:22;;;;;;;;;;;;;;;;;;5042913;28;20012;-78
2020/12/09 13:04:49;;;;;;;;;;;;;;;;;;5044139;28;19960;-78
2020/12/09 13:07:15;;;;;;;;;;;;;;;;;;5049969;28;19929;-78
2020/12/09 13:09:42;;;;;;;;;;;;;;;;;;5042205;28;19999;-78
2020/12/09 13:12:09;;;;;;;;;;;;;;;;;;5026938;28;19925;-79
2020/12/09 13:14:35;;;;;;;;;;;;;;;;;;5026518;28;20023;-78
2020/12/09 13:17:02;;;;;;;;;;;;;;;;;;5026931;28;19939;-78
2020/12/09 13:19:28;;;;;;;;;;;;;;;;;;5030668;28;20361;-77
2020/12/09 13:21:56;;;;;;;;;;;;;;;;;;5049153;28;20047;-78
2020/12/09 13:24:23;;;;;;;;;;;;;;;;;;5036836;28;19951;-78
2020/12/09 13:26:50;;;;;;;;;;;;;;;;;;5013483;28;20426;-77
2020/12/09 13:29:16;;;;;;;;;;;;;;;;;;5030618;28;19979;-77
2020/12/09 13:31:45;;;;;;;;;;;;;;;;;;5018028;28;19932;-77
2020/12/09 13:34:11;;;;;;;;;;;;;;;;;;5026646;28;19932;-78
2020/12/09 13:36:38;;;;;;;;;;;;;;;;;;5052647;28;20757;-78
2020/12/09 13:39:05;;;;;;;;;;;;;;;;;;5030768;28;19925;-77
2020/12/09 13:41:31;;;;;;;;;;;;;;;;;;5033188;28;19998;-77
2020/12/09 13:43:58;;;;;;;;;;;;;;;;;;5056046;28;20456;-77
2020/12/09 13:46:29;;;;;;;;;;;;;;;;;;5038847;28;19948;-77
2020/12/09 13:48:56;;;;;;;;;;;;;;;;;;5056931;28;19924;-77
2020/12/09 13:51:22;;;;;;;;;;;;;;;;;;5054871;28;20400;-77
2020/12/09 13:53:49;;;;;;;;;;;;;;;;;;5046225;28;19933;-78
2020/12/09 13:56:27;;;;;;;;;;;;;;;;;;5043795;28;19933;-78
2020/12/09 13:58:54;;;;;;;;;;;;;;;;;;5046706;28;19967;-78
2020/12/09 14:01:21;;;;;;;;;;;;;;;;;;5030518;28;20019;-78
2020/12/09 14:03:48;;;;;;;;;;;;;;;;;;5013876;28;19937;-78
2020/12/09 14:06:14;;;;;;;;;;;;;;;;;;5031477;28;19968;-78
2020/12/09 14:08:41;;;;;;;;;;;;;;;;;;5013428;28;19925;-78
2020/12/09 14:11:08;;;;;;;;;;;;;;;;;;5013150;28;20392;-78
2020/12/09 14:13:34;;;;;;;;;;;;;;;;;;5044347;28;20421;-78
2020/12/09 14:16:02;;;;;;;;;;;;;;;;;;5043501;28;19929;-78
2020/12/09 14:18:30;;;;;;;;;;;;;;;;;;5044491;28;19929;-78
2020/12/09 14:20:58;;;;;;;;;;;;;;;;;;5030604;28;19975;-78
2020/12/09 14:23:24;;;;;;;;;;;;;;;;;;5030369;28;20448;-78
2020/12/09 14:25:51;;;;;;;;;;;;;;;;;;5012971;28;19976;-78
2020/12/09 14:28:22;;;;;;;;;;;;;;;;;;5014103;28;20020;-78
2020/12/09 14:30:49;;;;;;;;;;;;;;;;;;5030815;28;19939;-78
2020/12/09 14:33:15;;;;;;;;;;;;;;;;;;5021265;28;19929;-78
2020/12/09 14:35:44;;;;;;;;;;;;;;;;;;5025763;28;20333;-78
2020/12/09 14:38:11;;;;;;;;;;;;;;;;;;5044227;28;20003;-78
2020/12/09 14:40:38;;;;;;;;;;;;;;;;;;5045868;28;19935;-77
2020/12/09 14:43:05;;;;;;;;;;;;;;;;;;5041240;28;20004;-78
2020/12/09 14:45:31;;;;;;;;;;;;;;;;;;5039783;28;19982;-78
2020/12/09 14:47:58;;;;;;;;;;;;;;;;;;5043530;28;19957;-78
2020/12/09 14:50:24;;;;;;;;;;;;;;;;;;5047739;28;20336;-78
2020/12/09 14:52:51;;;;;;;;;;;;;;;;;;5034417;28;19972;-78
2020/12/09 14:55:18;;;;;;;;;;;;;;;;;;5052526;28;19924;-78
2020/12/09 14:57:44;;;;;;;;;;;;;;;;;;5046882;28;20370;-78
2020/12/09 15:00:12;;;;;;;;;;;;;;;;;;5029009;28;19931;-78
2020/12/09 15:02:46;;;;;;;;;;;;;;;;;;5044712;28;20431;-78
2020/12/09 15:05:14;;;;;;;;;;;;;;;;;;5049059;28;19932;-78
2020/12/09 15:07:41;;;;;;;;;;;;;;;;;;5043154;28;20425;-78
2020/12/09 15:10:07;;;;;;;;;;;;;;;;;;5045202;28;19924;-78
2020/12/09 15:12:34;;;;;;;;;;;;;;;;;;5046204;28;19925;-78
2020/12/09 15:15:00;;;;;;;;;;;;;;;;;;5027578;28;19925;-78
2020/12/09 15:17:27;;;;;;;;;;;;;;;;;;5046085;28;20028;-78
2020/12/09 15:19:54;;;;;;;;;;;;;;;;;;5045911;28;19925;-78
2020/12/09 15:22:20;;;;;;;;;;;;;;;;;;5045549;28;20024;-78
2020/12/09 15:24:47;;;;;;;;;;;;;;;;;;5014639;28;19928;-78
2020/12/09 15:27:13;;;;;;;;;;;;;;;;;;5014252;28;19929;-78
2020/12/09 15:29:42;;;;;;;;;;;;;;;;;;5032255;28;20019;-78
2020/12/09 15:32:09;;;;;;;;;;;;;;;;;;5015515;28;19936;-78
2020/12/09 15:34:36;;;;;;;;;;;;;;;;;;5044529;28;20604;-78
2020/12/09 15:37:02;;;;;;;;;;;;;;;;;;5045240;28;19996;-78
2020/12/09 15:39:31;;;;;;;;;;;;;;;;;;5043766;28;19939;-78
2020/12/09 15:41:58;;;;;;;;;;;;;;;;;;5030216;28;19960;-78
2020/12/09 15:44:25;;;;;;;;;;;;;;;;;;5031417;28;19929;-77
2020/12/09 15:46:53;;;;;;;;;;;;;;;;;;5014333;28;19929;-77
2020/12/09 15:49:20;;;;;;;;;;;;;;;;;;5031939;28;20008;-77
2020/12/09 15:51:47;;;;;;;;;;;;;;;;;;5032288;28;20480;-77
2020/12/09 15:54:14;;;;;;;;;;;;;;;;;;5030508;28;19925;-77
2020/12/09 15:56:41;;;;;;;;;;;;;;;;;;5044304;28;20605;-77
2020/12/09 15:59:08;;;;;;;;;;;;;;;;;;5042496;28;19924;-77
2020/12/09 16:01:34;;;;;;;;;;;;;;;;;;5043213;28;20011;-78
2020/12/09 16:04:01;;;;;;;;;;;;;;;;;;5042663;28;19925;-77
2020/12/09 16:06:28;;;;;;;;;;;;;;;;;;5025487;28;20025;-77
2020/12/09 16:08:54;;;;;;;;;;;;;;;;;;5023145;28;19964;-77
2020/12/09 16:11:21;;;;;;;;;;;;;;;;;;5041995;28;20004;-77
2020/12/09 16:13:48;;;;;;;;;;;;;;;;;;5045211;28;19936;-77
2020/12/09 16:16:15;;;;;;;;;;;;;;;;;;5042207;28;19936;-78
2020/12/09 16:18:42;;;;;;;;;;;;;;;;;;5041222;28;20008;-78
2020/12/09 16:21:09;;;;;;;;;;;;;;;;;;5027163;28;20295;-78
2020/12/09 16:23:36;;;;;;;;;;;;;;;;;;5030820;28;20659;-77
2020/12/09 16:26:03;;;;;;;;;;;;;;;;;;5051740;28;19929;-78
2020/12/09 16:28:29;;;;;;;;;;;;;;;;;;5033087;28;20027;-78
2020/12/09 16:30:56;;;;;;;;;;;;;;;;;;5033975;28;19979;-78
2020/12/09 16:33:22;;;;;;;;;;;;;;;;;;5048927;28;19971;-78
2020/12/09 16:35:51;;;;;;;;;;;;;;;;;;5043297;28;19935;-78
2020/12/09 16:38:17;;;;;;;;;;;;;;;;;;5047516;28;19979;-77
2020/12/09 16:40:46;;;;;;;;;;;;;;;;;;5033116;28;19928;-77
2020/12/09 16:43:12;;;;;;;;;;;;;;;;;;5034764;28;20366;-77
2020/12/09 16:45:39;;;;;;;;;;;;;;;;;;5018985;28;20363;-77